Pos First Name Last Name YOB Country Start
Num
Time Swim T1 Bike T2 Run
1 Henk Galenkamp 1985 NED 215 08:55:35 01:00:28 00:02:14 04:41:35 00:02:12 03:09:08
2 Tijmen Smit 1986 NED 220 09:07:42 00:55:32 00:02:42 04:30:42 00:03:02 03:35:46
3 Olivier Boquet 1985 FRA 204 09:12:29 01:03:01 00:02:31 04:36:05 00:03:49 03:27:04
4 Melvin Welsink 1987 NED 223 09:14:46 01:04:24 00:02:44 04:50:12 00:03:13 03:14:16
5 Max Severijns 1985 NED 221 09:19:48 00:55:38 00:04:20 04:51:50 00:04:58 03:23:04
6 Rutger Op Den Dries 1987 NED 218 09:20:44 01:01:41 00:03:07 04:58:36 00:04:56 03:12:27
7 Anton-Theo Borger 1986 NED 212 09:33:03 00:59:08 00:02:19 05:04:16 00:02:20 03:25:01
8 Bouke Kooreman 1989 NED 213 09:33:22 01:15:42 00:06:37 05:01:13 00:02:24 03:07:30
9 Fons Van Workum 1988 NED 224 09:36:33 01:06:23 00:02:45 04:52:28 00:02:13 03:32:47
10 Gianni Allebosch 1989 BEL 201 09:39:51 01:10:02 00:04:13 05:10:03 00:02:13 03:13:21
11 Dennis De Knijff 1986 NED 208 09:47:03 01:12:55 00:03:32 04:53:44 00:04:10 03:32:43
12 Chris Emmerson 1988 GBR 205 09:48:33 01:04:30 00:03:11 04:59:21 00:02:50 03:38:43
13 Ryan Weston Bennett 1986 GBR 207 09:49:19 01:04:34 00:03:21 04:45:26 00:02:07 03:53:52
14 Oliver Dewhurst 1989 GBR 206 09:49:40 01:09:56 00:02:21 05:07:05 00:02:32 03:27:48
15 Sven De Langen 1986 NED 217 09:56:06 01:04:50 00:03:01 05:03:25 00:03:14 03:41:38
16 Steven Van Der Weij 1989 NED 219 10:25:08 00:55:02 00:03:47 05:32:35 00:02:06 03:51:41
17 Steven Voskuilen 1988 NED 216 10:40:13 01:18:29 00:03:34 05:08:22 00:04:50 04:05:01
18 Juro Ljubičić 1986 CRO 203 10:54:13 01:19:16 00:03:58 05:19:04 00:03:17 04:08:40
19 Danny Sijtzel 1985 NED 211 11:08:17 01:04:50 00:04:24 05:06:56 00:02:45 04:49:23
20 Maarten Van Ettinger 1985 NED 210 11:31:43 01:07:45 00:12:22 05:40:48 00:09:25 04:21:25
DNF Sam De Bruyn 1985 BEL 202 DNF 01:00:28 00:02:17 04:42:20 00:02:05 00:00:00
Program notes:

Technical Delegate: Kalle Jensen/NOR. Head Referee: Michiel van Niekerk/NED.
Competition Jury: Kalle Jensen/NOR, Marin Breedijk/NED, Denies Jaeger/FRA.
Distances: Swim 3800 m (2 laps), Bike 180 km (2 laps), Run 42.2 km (6 laps)
Water temperature 17.8ºC. Air temperature 12.2ºC Wetsuits allowed.
Athlete #211 Sijtzel/NED served a 5 minutes time penalty during the bike segment